createdAt,value
2022-11-28T00:01:24.584Z,8.80
2022-11-28T00:03:50.906Z,8.68
2022-11-28T00:06:17.521Z,8.77
2022-11-28T00:08:43.930Z,8.53
2022-11-28T00:11:10.188Z,8.40
2022-11-28T00:13:36.422Z,8.41
2022-11-28T00:16:02.729Z,8.35
2022-11-28T00:18:29.007Z,8.46
2022-11-28T00:20:55.279Z,8.47
2022-11-28T00:23:21.565Z,8.52
2022-11-28T00:25:47.822Z,8.72
2022-11-28T00:28:14.075Z,8.60
2022-11-28T00:30:40.296Z,8.59
2022-11-28T00:33:06.532Z,8.51
2022-11-28T00:35:32.771Z,8.60
2022-11-28T00:37:58.981Z,8.90
2022-11-28T00:40:25.228Z,9.08
2022-11-28T00:42:51.457Z,9.02
2022-11-28T00:45:17.680Z,9.14
2022-11-28T00:47:43.927Z,8.46
2022-11-28T00:50:10.172Z,8.27
2022-11-28T00:52:36.413Z,8.46
2022-11-28T00:55:02.677Z,8.50
2022-11-28T00:57:28.907Z,8.62
2022-11-28T00:59:55.130Z,8.59
2022-11-28T01:02:21.411Z,8.70
2022-11-28T01:04:47.696Z,8.60
2022-11-28T01:07:13.984Z,8.64
2022-11-28T01:09:40.249Z,8.53
2022-11-28T01:12:06.483Z,8.46
2022-11-28T01:14:32.728Z,8.54
2022-11-28T01:16:58.965Z,8.51
2022-11-28T01:19:25.190Z,8.30
2022-11-28T01:21:51.412Z,8.28
2022-11-28T01:24:17.648Z,8.31
2022-11-28T01:26:43.900Z,8.27
2022-11-28T01:29:10.146Z,8.27
2022-11-28T01:31:36.404Z,8.39
2022-11-28T01:34:02.658Z,8.42
2022-11-28T01:36:29.043Z,8.20
2022-11-28T01:38:55.312Z,8.00
2022-11-28T01:41:21.537Z,8.06
2022-11-28T01:43:47.762Z,8.10
2022-11-28T01:46:14.112Z,8.14
2022-11-28T01:48:40.432Z,8.17
2022-11-28T01:51:06.656Z,8.19
2022-11-28T01:53:32.937Z,8.22
2022-11-28T01:55:59.186Z,8.11
2022-11-28T01:58:25.424Z,8.10
2022-11-28T02:00:51.727Z,8.15
2022-11-28T02:03:17.996Z,8.02
2022-11-28T02:05:44.249Z,8.08
2022-11-28T02:08:10.497Z,7.97
2022-11-28T02:10:36.733Z,8.07
2022-11-28T02:13:02.939Z,8.17
2022-11-28T02:15:29.234Z,8.05
2022-11-28T02:17:55.473Z,8.14
2022-11-28T02:20:21.692Z,8.21
2022-11-28T02:22:47.924Z,8.22
2022-11-28T02:25:14.154Z,7.93
2022-11-28T02:27:40.544Z,8.14
2022-11-28T02:30:06.782Z,7.92
2022-11-28T02:32:33.020Z,7.70
2022-11-28T02:34:59.269Z,7.80
2022-11-28T02:37:25.520Z,7.95
2022-11-28T02:39:51.749Z,8.08
2022-11-28T02:42:17.980Z,8.05
2022-11-28T02:44:44.488Z,8.03
2022-11-28T02:47:11.110Z,7.87
2022-11-28T02:49:37.420Z,7.88
2022-11-28T02:52:03.647Z,7.86
2022-11-28T02:54:29.904Z,7.88
2022-11-28T02:56:56.187Z,7.79
2022-11-28T02:59:22.538Z,7.57
2022-11-28T03:01:48.867Z,7.38
2022-11-28T03:04:15.182Z,6.63
2022-11-28T03:06:41.459Z,6.79
2022-11-28T03:09:07.722Z,6.93
2022-11-28T03:11:33.967Z,5.89
2022-11-28T03:14:00.216Z,5.46
2022-11-28T03:16:26.543Z,5.71
2022-11-28T03:18:52.831Z,5.96
2022-11-28T03:21:19.068Z,6.14
2022-11-28T03:23:45.313Z,6.22
2022-11-28T03:26:11.541Z,6.19
2022-11-28T03:28:43.200Z,6.20
2022-11-28T03:31:10.031Z,6.26
2022-11-28T03:33:36.292Z,6.25
2022-11-28T03:36:02.530Z,6.28
2022-11-28T03:38:28.765Z,6.36
2022-11-28T03:40:55.001Z,6.35
2022-11-28T03:43:21.236Z,6.07
2022-11-28T03:45:47.471Z,6.06
2022-11-28T03:48:13.746Z,6.20
2022-11-28T03:50:40.128Z,6.14
2022-11-28T03:53:06.388Z,6.31
2022-11-28T03:55:32.693Z,6.36
2022-11-28T03:57:58.983Z,6.24
2022-11-28T04:00:25.214Z,6.11
2022-11-28T04:02:51.467Z,6.21
2022-11-28T04:05:17.891Z,6.14
2022-11-28T04:07:44.216Z,6.14
2022-11-28T04:10:10.481Z,6.09
2022-11-28T04:12:56.707Z,6.04
2022-11-28T04:15:22.941Z,6.10
2022-11-28T04:17:49.170Z,6.15
2022-11-28T04:20:15.447Z,6.16
2022-11-28T04:22:41.690Z,6.16
2022-11-28T04:25:07.938Z,6.20
2022-11-28T04:27:34.180Z,6.10
2022-11-28T04:30:00.429Z,6.16
2022-11-28T04:32:26.684Z,6.26
2022-11-28T04:34:52.937Z,6.30
2022-11-28T04:37:19.185Z,6.36
2022-11-28T04:39:45.414Z,6.47
2022-11-28T04:42:11.722Z,6.23
2022-11-28T04:44:37.940Z,6.33
2022-11-28T04:47:04.202Z,6.61
2022-11-28T04:49:30.516Z,6.47
2022-11-28T04:51:56.744Z,6.20
2022-11-28T04:54:23.053Z,6.44
2022-11-28T04:56:49.286Z,6.71
2022-11-28T04:59:15.548Z,6.62
2022-11-28T05:01:41.903Z,6.65
2022-11-28T05:04:08.215Z,6.67
2022-11-28T05:06:34.463Z,6.81
2022-11-28T05:09:00.718Z,6.69
2022-11-28T05:11:26.997Z,6.74
2022-11-28T05:13:53.223Z,6.65
2022-11-28T05:16:19.633Z,6.27
2022-11-28T05:18:45.915Z,6.45
2022-11-28T05:21:12.164Z,6.63
2022-11-28T05:23:38.434Z,6.41
2022-11-28T05:26:04.688Z,6.48
2022-11-28T05:28:30.999Z,6.72
2022-11-28T05:30:57.260Z,6.71
2022-11-28T05:33:23.514Z,6.74
2022-11-28T05:35:49.771Z,6.70
2022-11-28T05:38:16.004Z,6.63
2022-11-28T05:40:42.238Z,6.83
2022-11-28T05:43:08.510Z,6.75
2022-11-28T05:45:34.860Z,6.83
2022-11-28T05:48:01.149Z,6.88
2022-11-28T05:50:27.395Z,6.56
2022-11-28T05:52:53.652Z,6.03
2022-11-28T05:55:19.899Z,6.11
2022-11-28T05:57:46.132Z,6.30
2022-11-28T06:00:12.428Z,6.47
2022-11-28T06:02:38.700Z,6.49
2022-11-28T06:05:27.393Z,6.38
2022-11-28T06:07:51.237Z,6.47
2022-11-28T06:10:17.506Z,6.10
2022-11-28T06:12:43.729Z,5.97
2022-11-28T06:15:09.964Z,5.78
2022-11-28T06:17:36.206Z,6.01
2022-11-28T06:20:02.500Z,6.15
2022-11-28T06:22:28.783Z,6.25
2022-11-28T06:24:55.053Z,6.32
2022-11-28T06:27:21.283Z,6.38
2022-11-28T06:29:47.538Z,5.78
2022-11-28T06:32:17.606Z,5.74
2022-11-28T06:34:46.876Z,6.00
2022-11-28T06:37:13.145Z,6.19
2022-11-28T06:39:39.517Z,6.27
2022-11-28T06:42:05.865Z,6.43
2022-11-28T06:44:32.178Z,5.99
2022-11-28T06:46:58.439Z,6.19
2022-11-28T06:49:24.663Z,6.27
2022-11-28T06:51:50.913Z,6.34
2022-11-28T06:54:17.162Z,6.40
2022-11-28T06:56:43.413Z,6.45
2022-11-28T06:59:09.654Z,6.46
2022-11-28T07:01:35.957Z,6.59
2022-11-28T07:04:02.308Z,6.60
2022-11-28T07:06:28.533Z,6.67
2022-11-28T07:08:54.761Z,6.69
2022-11-28T07:11:20.978Z,6.86
2022-11-28T07:13:47.252Z,6.86
2022-11-28T07:16:13.520Z,6.97
2022-11-28T07:18:39.757Z,6.33
2022-11-28T07:21:06.035Z,5.62
2022-11-28T07:23:32.333Z,5.35
2022-11-28T07:25:58.587Z,5.78
2022-11-28T07:28:24.820Z,6.07
2022-11-28T07:30:51.068Z,6.22
2022-11-28T07:33:17.301Z,6.44
2022-11-28T07:35:43.547Z,6.56
2022-11-28T07:38:09.798Z,5.92
2022-11-28T07:40:36.040Z,5.89
2022-11-28T07:43:02.275Z,6.32
2022-11-28T07:45:41.900Z,6.48
2022-11-28T07:48:14.776Z,6.65
2022-11-28T07:50:41.030Z,6.73
2022-11-28T07:53:07.528Z,6.86
2022-11-28T07:55:33.805Z,6.85
2022-11-28T07:58:00.190Z,6.87
2022-11-28T08:00:26.463Z,6.87
2022-11-28T08:02:52.691Z,6.98
2022-11-28T08:05:18.924Z,6.91
2022-11-28T08:07:45.222Z,7.12
2022-11-28T08:10:11.559Z,7.10
2022-11-28T08:12:37.835Z,7.21
2022-11-28T08:15:04.068Z,7.30
2022-11-28T08:17:30.296Z,7.38
2022-11-28T08:19:56.539Z,7.44
2022-11-28T08:22:22.770Z,7.55
2022-11-28T08:24:49.021Z,7.54
2022-11-28T08:27:15.350Z,7.61
2022-11-28T08:29:41.798Z,7.66
2022-11-28T08:32:08.317Z,7.83
2022-11-28T08:34:34.688Z,7.85
2022-11-28T08:37:01.102Z,7.89
2022-11-28T08:39:27.351Z,7.98
2022-11-28T08:41:53.614Z,8.02
2022-11-28T08:44:19.863Z,8.11
2022-11-28T08:46:46.092Z,8.27
2022-11-28T08:49:12.326Z,8.42
2022-11-28T08:51:38.601Z,8.46
2022-11-28T08:54:04.838Z,8.56
2022-11-28T08:56:31.066Z,8.49
2022-11-28T08:58:57.307Z,8.46
2022-11-28T09:01:23.647Z,8.62
2022-11-28T09:03:50.004Z,8.64
2022-11-28T09:06:19.472Z,8.73
2022-11-28T09:08:45.748Z,8.78
2022-11-28T09:11:12.038Z,8.84
2022-11-28T09:13:38.293Z,8.93
2022-11-28T09:16:04.557Z,9.03
2022-11-28T09:18:30.828Z,9.08
2022-11-28T09:20:57.102Z,9.17
2022-11-28T09:23:23.360Z,9.19
2022-11-28T09:25:49.622Z,9.27
2022-11-28T09:28:15.842Z,9.45
2022-11-28T09:30:42.106Z,9.43
2022-11-28T09:33:08.392Z,9.52
2022-11-28T09:35:34.621Z,9.66
2022-11-28T09:38:00.873Z,9.75
2022-11-28T09:40:27.195Z,9.67
2022-11-28T09:42:53.414Z,9.71
2022-11-28T09:45:19.682Z,9.74
2022-11-28T09:47:45.955Z,9.66
2022-11-28T09:50:12.204Z,9.73
2022-11-28T09:52:38.492Z,9.77
2022-11-28T09:55:04.769Z,9.90
2022-11-28T09:57:31.040Z,9.95
2022-11-28T09:59:57.348Z,10.06
2022-11-28T10:02:23.644Z,10.01
2022-11-28T10:04:49.956Z,10.08
2022-11-28T10:07:16.274Z,10.18
2022-11-28T10:09:42.835Z,10.26
2022-11-28T10:12:09.226Z,9.94
2022-11-28T10:14:35.489Z,9.75
2022-11-28T10:17:01.985Z,9.74
2022-11-28T10:22:14.518Z,9.97
2022-11-28T10:24:40.784Z,9.90
2022-11-28T10:27:07.028Z,10.08
2022-11-28T10:29:33.282Z,10.20
2022-11-28T10:31:59.536Z,10.33
2022-11-28T10:34:25.778Z,10.46
2022-11-28T10:36:52.041Z,10.45
2022-11-28T10:39:18.309Z,10.46
2022-11-28T10:41:45.057Z,10.61
2022-11-28T10:44:11.302Z,10.59
2022-11-28T10:46:37.649Z,10.70
2022-11-28T10:49:03.899Z,10.74
2022-11-28T10:51:30.171Z,10.64
2022-11-28T10:53:56.455Z,10.78
2022-11-28T10:56:22.696Z,10.80
2022-11-28T10:58:48.969Z,10.96
2022-11-28T11:01:15.310Z,11.04
2022-11-28T11:03:41.564Z,11.08
2022-11-28T11:06:07.825Z,11.04
2022-11-28T11:08:34.061Z,10.86
2022-11-28T11:11:00.363Z,10.96
2022-11-28T11:13:26.600Z,10.87
2022-11-28T11:15:52.885Z,10.58
2022-11-28T11:18:19.157Z,9.49
2022-11-28T11:20:45.542Z,8.22
2022-11-28T11:23:11.791Z,7.77
2022-11-28T11:25:38.004Z,8.42
2022-11-28T11:28:04.254Z,8.21
2022-11-28T11:30:30.586Z,7.72
2022-11-28T11:32:56.989Z,7.31
2022-11-28T11:35:23.247Z,7.61
2022-11-28T11:37:49.490Z,8.25
2022-11-28T11:40:15.737Z,8.37
2022-11-28T11:42:41.989Z,8.53
2022-11-28T11:45:08.225Z,9.04
2022-11-28T11:47:34.563Z,9.24
2022-11-28T11:50:00.788Z,9.57
2022-11-28T11:52:27.086Z,9.83
2022-11-28T11:54:53.379Z,10.13
2022-11-28T11:57:32.696Z,10.32
2022-11-28T12:00:00.023Z,10.61
2022-11-28T12:02:26.417Z,10.70
2022-11-28T12:04:55.493Z,10.76
2022-11-28T12:07:22.065Z,10.86
2022-11-28T12:09:48.391Z,10.78
2022-11-28T12:12:14.687Z,10.62
2022-11-28T12:14:40.935Z,10.69
2022-11-28T12:19:53.481Z,10.86
2022-11-28T12:22:19.748Z,10.99
2022-11-28T12:24:46.436Z,11.04
2022-11-28T12:27:13.102Z,11.25
2022-11-28T12:29:39.468Z,11.24
2022-11-28T12:32:05.736Z,11.35
2022-11-28T12:34:31.988Z,11.23
2022-11-28T12:36:58.240Z,11.16
2022-11-28T12:39:24.481Z,11.25
2022-11-28T12:41:50.720Z,11.36
2022-11-28T12:44:17.049Z,11.45
2022-11-28T12:46:43.470Z,11.11
2022-11-28T12:49:09.823Z,10.36
2022-11-28T12:51:36.131Z,10.30
2022-11-28T12:54:02.408Z,10.12
2022-11-28T12:56:28.726Z,9.66
2022-11-28T12:58:54.960Z,10.18
2022-11-28T13:01:21.260Z,9.89
2022-11-28T13:03:47.561Z,10.25
2022-11-28T13:06:13.812Z,10.37
2022-11-28T13:08:46.479Z,10.15
2022-11-28T13:11:14.588Z,9.35
2022-11-28T13:13:40.832Z,9.31
2022-11-28T13:16:09.230Z,9.85
2022-11-28T13:18:35.524Z,10.19
2022-11-28T13:21:01.756Z,10.21
2022-11-28T13:23:27.978Z,10.42
2022-11-28T13:25:54.228Z,10.39
2022-11-28T13:28:20.501Z,10.50
2022-11-28T13:30:46.800Z,10.54
2022-11-28T13:33:13.122Z,10.52
2022-11-28T13:35:39.514Z,10.65
2022-11-28T13:40:52.032Z,9.99
2022-11-28T13:43:18.300Z,10.22
2022-11-28T13:45:44.564Z,10.49
2022-11-28T13:48:10.913Z,10.52
2022-11-28T13:50:37.228Z,10.61
2022-11-28T13:53:03.514Z,10.56
2022-11-28T13:55:29.787Z,9.49
2022-11-28T13:57:56.025Z,9.20
2022-11-28T14:00:22.253Z,8.87
2022-11-28T14:02:48.721Z,8.52
2022-11-28T14:05:15.615Z,7.49
2022-11-28T14:07:44.037Z,7.01
2022-11-28T14:10:10.339Z,7.24
2022-11-28T14:12:36.595Z,7.85
2022-11-28T14:15:02.835Z,7.65
2022-11-28T14:17:29.156Z,7.48
2022-11-28T14:19:55.415Z,8.01
2022-11-28T14:22:21.657Z,8.37
2022-11-28T14:24:47.928Z,8.14
2022-11-28T14:27:14.195Z,8.39
2022-11-28T14:29:40.452Z,8.58
2022-11-28T14:32:28.864Z,8.47
2022-11-28T14:34:53.390Z,7.90
2022-11-28T14:37:19.647Z,7.88
2022-11-28T14:39:45.903Z,7.63
2022-11-28T14:42:25.447Z,7.73
2022-11-28T14:45:00.852Z,7.51
2022-11-28T14:47:31.135Z,7.65
2022-11-28T14:49:57.370Z,7.95
2022-11-28T14:52:38.523Z,8.08
2022-11-28T14:55:05.603Z,8.20
2022-11-28T14:57:31.876Z,8.29
2022-11-28T14:59:58.118Z,8.33
2022-11-28T15:02:24.481Z,8.35
2022-11-28T15:04:50.861Z,8.37
2022-11-28T15:07:18.520Z,8.36
2022-11-28T15:09:44.797Z,8.36
2022-11-28T15:12:11.018Z,8.30
2022-11-28T15:14:37.517Z,8.42
2022-11-28T15:17:03.772Z,8.34
2022-11-28T15:19:30.028Z,8.31
2022-11-28T15:21:56.307Z,8.30
2022-11-28T15:24:22.551Z,8.30
2022-11-28T15:26:52.957Z,8.23
2022-11-28T15:29:22.090Z,8.23
2022-11-28T15:31:48.384Z,8.16
2022-11-28T15:34:14.690Z,8.13
2022-11-28T15:36:41.021Z,8.16
2022-11-28T15:39:07.270Z,8.21
2022-11-28T15:41:33.519Z,8.13
2022-11-28T15:43:59.777Z,8.12
2022-11-28T15:46:26.046Z,8.08
2022-11-28T15:48:52.296Z,8.04
2022-11-28T15:51:18.547Z,8.09
2022-11-28T15:53:44.790Z,8.07
2022-11-28T15:56:11.036Z,8.05
2022-11-28T15:58:37.336Z,8.08
2022-11-28T16:01:03.657Z,8.07
2022-11-28T16:03:29.913Z,8.16
2022-11-28T16:05:56.145Z,8.11
2022-11-28T16:08:22.414Z,8.16
2022-11-28T16:10:48.658Z,7.96
2022-11-28T16:13:14.900Z,7.88
2022-11-28T16:15:43.784Z,7.51
2022-11-28T16:18:13.280Z,7.44
2022-11-28T16:20:39.536Z,7.60
2022-11-28T16:23:05.918Z,7.71
2022-11-28T16:25:32.150Z,7.77
2022-11-28T16:27:58.437Z,7.88
2022-11-28T16:30:24.671Z,7.82
2022-11-28T16:32:50.891Z,7.78
2022-11-28T16:35:17.106Z,7.85
2022-11-28T16:37:43.358Z,7.79
2022-11-28T16:40:09.653Z,7.80
2022-11-28T16:42:35.909Z,7.79
2022-11-28T16:45:02.137Z,7.68
2022-11-28T16:47:28.382Z,7.46
2022-11-28T16:49:54.637Z,6.62
2022-11-28T16:52:20.885Z,6.93
2022-11-28T16:54:47.119Z,7.07
2022-11-28T16:57:13.338Z,7.31
2022-11-28T16:59:39.565Z,7.48
2022-11-28T17:02:05.859Z,7.66
2022-11-28T17:04:32.190Z,7.69
2022-11-28T17:06:58.428Z,7.69
2022-11-28T17:09:24.677Z,7.70
2022-11-28T17:11:50.925Z,7.70
2022-11-28T17:14:17.154Z,7.72
2022-11-28T17:16:43.450Z,7.72
2022-11-28T17:19:09.718Z,7.59
2022-11-28T17:21:35.953Z,7.66
2022-11-28T17:24:02.181Z,7.58
2022-11-28T17:26:28.424Z,7.64
2022-11-28T17:28:54.670Z,7.65
2022-11-28T17:31:21.018Z,7.70
2022-11-28T17:33:47.291Z,7.70
2022-11-28T17:36:13.545Z,7.70
2022-11-28T17:38:39.851Z,7.69
2022-11-28T17:41:06.102Z,7.77
2022-11-28T17:43:36.039Z,7.76
2022-11-28T17:46:05.332Z,7.71
2022-11-28T17:48:31.632Z,7.73
2022-11-28T17:50:57.884Z,7.79
2022-11-28T17:53:24.123Z,7.62
2022-11-28T17:55:50.374Z,7.15
2022-11-28T17:58:16.596Z,6.73
2022-11-28T18:00:43.075Z,6.88
2022-11-28T18:03:09.409Z,6.37
2022-11-28T18:05:35.640Z,6.65
2022-11-28T18:08:01.860Z,6.99
2022-11-28T18:10:28.086Z,7.29
2022-11-28T18:12:54.333Z,7.47
2022-11-28T18:15:20.577Z,7.55
2022-11-28T18:17:46.830Z,7.53
2022-11-28T18:20:13.047Z,7.52
2022-11-28T18:22:39.291Z,7.49
2022-11-28T18:25:05.532Z,6.35
2022-11-28T18:27:31.758Z,6.07
2022-11-28T18:29:58.022Z,6.56
2022-11-28T18:32:24.244Z,6.69
2022-11-28T18:34:50.478Z,6.86
2022-11-28T18:37:16.735Z,7.08
2022-11-28T18:39:43.140Z,7.22
2022-11-28T18:42:09.690Z,7.27
2022-11-28T18:44:35.919Z,7.30
2022-11-28T18:47:02.161Z,7.17
2022-11-28T18:49:29.996Z,7.22
2022-11-28T18:51:56.248Z,7.27
2022-11-28T18:54:22.483Z,7.32
2022-11-28T18:56:48.744Z,7.27
2022-11-28T18:59:15.009Z,7.26
2022-11-28T19:01:41.315Z,7.28
2022-11-28T19:04:07.648Z,7.22
2022-11-28T19:06:33.880Z,7.10
2022-11-28T19:09:00.149Z,7.15
2022-11-28T19:11:26.450Z,7.13
2022-11-28T19:13:52.744Z,7.19
2022-11-28T19:16:19.022Z,7.27
2022-11-28T19:18:45.317Z,7.31
2022-11-28T19:21:11.545Z,7.36
2022-11-28T19:23:37.782Z,7.32
2022-11-28T19:26:04.038Z,7.31
2022-11-28T19:28:30.303Z,7.33
2022-11-28T19:30:56.530Z,7.29
2022-11-28T19:33:22.767Z,7.26
2022-11-28T19:35:49.003Z,7.21
2022-11-28T19:38:15.238Z,7.13
2022-11-28T19:40:41.484Z,7.18
2022-11-28T19:43:07.735Z,7.15
2022-11-28T19:45:34.014Z,7.14
2022-11-28T19:48:00.321Z,7.15
2022-11-28T19:50:26.552Z,7.17
2022-11-28T19:52:52.797Z,7.21
2022-11-28T19:55:19.033Z,7.27
2022-11-28T19:57:45.278Z,7.35
2022-11-28T20:00:11.531Z,7.36
2022-11-28T20:02:37.800Z,7.30
2022-11-28T20:05:04.063Z,6.89
2022-11-28T20:07:30.342Z,7.07
2022-11-28T20:09:56.583Z,7.06
2022-11-28T20:12:22.814Z,7.10
2022-11-28T20:14:49.081Z,7.10
2022-11-28T20:17:15.384Z,7.11
2022-11-28T20:19:41.974Z,7.01
2022-11-28T20:22:08.475Z,7.01
2022-11-28T20:24:34.778Z,7.04
2022-11-28T20:27:01.045Z,7.01
2022-11-28T20:29:27.277Z,7.00
2022-11-28T20:31:53.579Z,6.97
2022-11-28T20:34:19.848Z,7.14
2022-11-28T20:36:46.092Z,7.21
2022-11-28T20:39:12.337Z,7.18
2022-11-28T20:41:38.592Z,7.25
2022-11-28T20:44:04.847Z,7.31
2022-11-28T20:46:31.100Z,7.30
2022-11-28T20:48:57.351Z,7.22
2022-11-28T20:51:23.601Z,7.27
2022-11-28T20:53:49.893Z,7.24
2022-11-28T20:56:16.153Z,7.28
2022-11-28T20:58:42.364Z,7.13
2022-11-28T21:01:08.669Z,7.06
2022-11-28T21:03:34.928Z,7.02
2022-11-28T21:06:01.723Z,7.04
2022-11-28T21:08:28.070Z,6.95
2022-11-28T21:10:54.300Z,7.05
2022-11-28T21:13:20.560Z,7.05
2022-11-28T21:15:46.799Z,6.97
2022-11-28T21:18:13.051Z,6.96
2022-11-28T21:20:39.300Z,6.91
2022-11-28T21:23:05.557Z,6.95
2022-11-28T21:25:31.817Z,6.88
2022-11-28T21:27:58.052Z,6.68
2022-11-28T21:30:24.293Z,6.76
2022-11-28T21:32:50.565Z,6.87
2022-11-28T21:35:16.794Z,6.94
2022-11-28T21:37:43.069Z,6.93
2022-11-28T21:40:09.333Z,6.87
2022-11-28T21:42:35.568Z,6.83
2022-11-28T21:45:01.798Z,6.88
2022-11-28T21:47:28.070Z,6.85
2022-11-28T21:49:54.305Z,6.83
2022-11-28T21:52:20.554Z,6.87
2022-11-28T21:54:46.794Z,7.00
2022-11-28T21:57:13.041Z,6.94
2022-11-28T21:59:39.347Z,6.91
2022-11-28T22:03:32.234Z,7.10
2022-11-28T22:04:51.831Z,6.63
2022-11-28T22:07:18.170Z,6.69
2022-11-28T22:09:44.474Z,6.56
2022-11-28T22:12:10.715Z,6.72
2022-11-28T22:14:37.167Z,6.64
2022-11-28T22:17:03.403Z,6.66
2022-11-28T22:19:29.669Z,6.61
2022-11-28T22:21:56.364Z,6.62
2022-11-28T22:24:23.098Z,6.76
2022-11-28T22:26:49.400Z,6.74
2022-11-28T22:29:15.644Z,6.73
2022-11-28T22:31:41.948Z,6.73
2022-11-28T22:34:08.283Z,6.72
2022-11-28T22:36:34.580Z,6.87
2022-11-28T22:39:00.834Z,6.76
2022-11-28T22:41:29.306Z,6.72
2022-11-28T22:43:56.095Z,6.81
2022-11-28T22:46:22.378Z,6.77
2022-11-28T22:48:48.659Z,6.74
2022-11-28T22:51:14.901Z,6.72
2022-11-28T22:53:41.121Z,6.75
2022-11-28T22:56:07.338Z,6.82
2022-11-28T22:58:36.835Z,6.74
2022-11-28T23:01:05.651Z,6.80
2022-11-28T23:03:31.941Z,6.93
2022-11-28T23:05:58.205Z,7.01
2022-11-28T23:08:24.440Z,6.94
2022-11-28T23:10:50.659Z,6.94
2022-11-28T23:13:16.905Z,6.87
2022-11-28T23:15:46.151Z,6.87
2022-11-28T23:18:14.729Z,6.81
2022-11-28T23:20:40.960Z,6.75
2022-11-28T23:23:07.196Z,6.66
2022-11-28T23:25:33.427Z,6.66
2022-11-28T23:27:59.675Z,6.67
2022-11-28T23:30:25.914Z,6.67
2022-11-28T23:32:52.221Z,6.77
2022-11-28T23:35:18.513Z,6.73
2022-11-28T23:37:44.758Z,6.70
2022-11-28T23:40:10.996Z,6.64
2022-11-28T23:42:37.246Z,6.71
2022-11-28T23:45:03.476Z,6.70
2022-11-28T23:47:29.743Z,6.71
2022-11-28T23:49:55.968Z,6.72
2022-11-28T23:52:22.192Z,6.71
2022-11-28T23:54:48.430Z,6.74
2022-11-28T23:57:14.672Z,6.35
2022-11-28T23:59:40.901Z,5.95
